createdAt,value
2017-08-20T00:00:16.897Z,6.45
2017-08-20T00:02:51.330Z,7.57
2017-08-20T00:05:25.953Z,7.68
2017-08-20T00:08:00.445Z,7.85
2017-08-20T00:10:34.833Z,7.90
2017-08-20T00:13:09.325Z,8.38
2017-08-20T00:15:43.712Z,9.45
2017-08-20T00:18:18.128Z,7.25
2017-08-20T00:20:52.581Z,8.10
2017-08-20T00:23:26.896Z,8.32
2017-08-20T00:26:01.212Z,9.48
2017-08-20T00:28:35.720Z,8.70
2017-08-20T00:31:10.077Z,8.73
2017-08-20T00:33:44.584Z,8.07
2017-08-20T00:36:19.007Z,7.57
2017-08-20T00:38:53.488Z,6.00
2017-08-20T00:41:28.692Z,7.90
2017-08-20T00:44:03.065Z,8.10
2017-08-20T00:46:37.473Z,7.65
2017-08-20T00:49:11.853Z,7.72
2017-08-20T00:51:46.185Z,9.00
2017-08-20T00:54:20.593Z,8.60
2017-08-20T00:56:55.076Z,7.90
2017-08-20T00:59:30.268Z,10.43
2017-08-20T01:02:05.129Z,8.98
2017-08-20T01:04:39.505Z,10.18
2017-08-20T01:07:14.667Z,9.27
2017-08-20T01:09:49.798Z,5.47
2017-08-20T01:12:24.424Z,8.90
2017-08-20T01:14:58.961Z,9.57
2017-08-20T01:17:33.497Z,10.30
2017-08-20T01:20:07.809Z,9.35
2017-08-20T01:22:42.096Z,9.32
2017-08-20T01:25:16.602Z,10.05
2017-08-20T01:27:50.958Z,9.40
2017-08-20T01:30:25.656Z,9.02
2017-08-20T01:33:00.220Z,8.55
2017-08-20T01:35:34.486Z,9.02
2017-08-20T01:38:08.813Z,8.50
2017-08-20T01:40:43.933Z,8.75
2017-08-20T01:43:18.454Z,8.60
2017-08-20T01:45:52.777Z,7.80
2017-08-20T01:48:27.221Z,9.60
2017-08-20T01:51:01.653Z,6.07
2017-08-20T01:53:36.133Z,7.90
2017-08-20T01:56:10.473Z,7.12
2017-08-20T01:58:45.065Z,8.02
2017-08-20T02:01:19.492Z,7.80
2017-08-20T02:03:53.985Z,8.07
2017-08-20T02:06:28.458Z,7.20
2017-08-20T02:09:03.694Z,7.32
2017-08-20T02:11:38.020Z,7.70
2017-08-20T02:14:12.368Z,8.00
2017-08-20T02:16:46.749Z,6.72
2017-08-20T02:19:21.301Z,7.70
2017-08-20T02:21:55.636Z,6.85
2017-08-20T02:24:29.993Z,6.15
2017-08-20T02:27:04.362Z,6.97
2017-08-20T02:29:38.713Z,5.85
2017-08-20T02:32:13.026Z,5.35
2017-08-20T02:34:47.372Z,6.15
2017-08-20T02:37:21.908Z,6.65
2017-08-20T02:39:56.421Z,6.60
2017-08-20T02:42:31.052Z,6.45
2017-08-20T02:45:05.448Z,6.80
2017-08-20T02:47:39.807Z,7.20
2017-08-20T02:50:14.198Z,6.25
2017-08-20T02:52:48.536Z,6.20
2017-08-20T02:55:22.944Z,6.50
2017-08-20T02:57:57.264Z,6.72
2017-08-20T03:00:31.568Z,6.05
2017-08-20T03:03:05.888Z,5.93
2017-08-20T03:05:40.246Z,6.93
2017-08-20T03:08:14.798Z,6.18
2017-08-20T03:10:49.157Z,7.72
2017-08-20T03:13:23.661Z,6.35
2017-08-20T03:15:58.028Z,5.50
2017-08-20T03:18:32.412Z,5.30
2017-08-20T03:21:06.817Z,6.97
2017-08-20T03:23:41.249Z,6.70
2017-08-20T03:26:15.729Z,7.30
2017-08-20T03:28:50.190Z,5.82
2017-08-20T03:31:24.489Z,6.43
2017-08-20T03:33:58.990Z,6.87
2017-08-20T03:36:33.441Z,5.72
2017-08-20T03:39:07.833Z,7.12
2017-08-20T03:41:42.256Z,6.10
2017-08-20T03:44:16.801Z,6.97
2017-08-20T03:46:51.214Z,6.30
2017-08-20T03:49:25.653Z,5.87
2017-08-20T03:51:59.974Z,6.30
2017-08-20T03:54:34.297Z,6.10
2017-08-20T03:57:08.674Z,5.57
2017-08-20T03:59:43.207Z,5.70
2017-08-20T04:02:18.198Z,6.43
2017-08-20T04:04:52.752Z,5.95
2017-08-20T04:07:27.161Z,5.25
2017-08-20T04:10:01.486Z,5.95
2017-08-20T04:12:35.840Z,4.62
2017-08-20T04:15:10.329Z,6.03
2017-08-20T04:17:45.557Z,5.40
2017-08-20T04:20:20.100Z,5.55
2017-08-20T04:22:55.438Z,5.97
2017-08-20T04:25:29.873Z,5.50
2017-08-20T04:28:04.181Z,6.28
2017-08-20T04:30:38.572Z,5.65
2017-08-20T04:33:13.469Z,4.62
2017-08-20T04:35:47.969Z,4.15
2017-08-20T04:38:22.367Z,5.87
2017-08-20T04:40:56.716Z,5.00
2017-08-20T04:43:31.210Z,5.70
2017-08-20T04:46:05.765Z,4.72
2017-08-20T04:48:40.219Z,5.00
2017-08-20T04:51:14.533Z,4.68
2017-08-20T04:53:48.972Z,5.60
2017-08-20T04:56:23.449Z,4.75
2017-08-20T04:58:57.756Z,5.15
2017-08-20T05:01:32.069Z,5.20
2017-08-20T05:04:06.388Z,4.53
2017-08-20T05:06:40.735Z,4.57
2017-08-20T05:09:15.197Z,4.60
2017-08-20T05:11:49.744Z,4.18
2017-08-20T05:14:24.120Z,4.80
2017-08-20T05:16:58.433Z,4.65
2017-08-20T05:19:32.712Z,3.70
2017-08-20T05:22:07.073Z,3.80
2017-08-20T05:24:41.549Z,4.00
2017-08-20T05:27:16.200Z,3.87
2017-08-20T05:29:50.507Z,4.55
2017-08-20T05:32:24.807Z,4.32
2017-08-20T05:34:59.193Z,3.92
2017-08-20T05:37:33.807Z,2.72
2017-08-20T05:40:08.275Z,4.03
2017-08-20T05:42:42.552Z,4.18
2017-08-20T05:45:16.881Z,4.53
2017-08-20T05:47:51.581Z,5.00
2017-08-20T05:50:25.993Z,3.83
2017-08-20T05:53:00.326Z,3.42
2017-08-20T05:55:34.705Z,4.32
2017-08-20T05:58:09.169Z,4.93
2017-08-20T06:00:43.566Z,3.87
2017-08-20T06:03:18.708Z,3.55
2017-08-20T06:05:52.996Z,4.35
2017-08-20T06:08:28.185Z,4.32
2017-08-20T06:11:02.613Z,3.67
2017-08-20T06:13:36.918Z,4.45
2017-08-20T06:16:11.328Z,3.67
2017-08-20T06:18:45.779Z,3.33
2017-08-20T06:21:20.265Z,4.00
2017-08-20T06:23:54.700Z,3.67
2017-08-20T06:26:29.054Z,2.92
2017-08-20T06:29:03.382Z,3.47
2017-08-20T06:31:37.738Z,4.10
2017-08-20T06:34:12.150Z,4.85
2017-08-20T06:36:46.548Z,3.83
2017-08-20T06:39:20.884Z,4.57
2017-08-20T06:41:55.253Z,3.22
2017-08-20T06:44:29.810Z,3.20
2017-08-20T06:47:04.214Z,3.33
2017-08-20T06:49:38.481Z,3.35
2017-08-20T06:52:12.797Z,4.40
2017-08-20T06:54:47.235Z,3.62
2017-08-20T06:57:21.709Z,3.65
2017-08-20T06:59:56.468Z,3.90
2017-08-20T07:02:30.890Z,3.45
2017-08-20T07:05:05.218Z,3.12
2017-08-20T07:07:39.621Z,2.97
2017-08-20T07:10:13.943Z,3.05
2017-08-20T07:12:48.211Z,3.37
2017-08-20T07:15:22.552Z,1.95
2017-08-20T07:17:56.862Z,2.80
2017-08-20T07:20:31.182Z,2.50
2017-08-20T07:23:06.412Z,2.90
2017-08-20T07:25:40.877Z,2.30
2017-08-20T07:28:15.277Z,2.97
2017-08-20T07:30:49.589Z,2.40
2017-08-20T07:33:23.892Z,2.40
2017-08-20T07:35:58.213Z,3.20
2017-08-20T07:38:32.625Z,2.85
2017-08-20T07:41:07.098Z,5.80
2017-08-20T07:43:41.581Z,2.25
2017-08-20T07:46:16.028Z,2.55
2017-08-20T07:48:50.368Z,2.60
2017-08-20T07:51:24.860Z,3.17
2017-08-20T07:53:59.332Z,1.85
2017-08-20T07:56:33.660Z,2.58
2017-08-20T07:59:07.989Z,2.60
2017-08-20T08:01:42.313Z,3.95
2017-08-20T08:04:16.719Z,3.22
2017-08-20T08:06:51.045Z,2.92
2017-08-20T08:09:25.349Z,1.70
2017-08-20T08:11:59.673Z,2.03
2017-08-20T08:14:33.998Z,2.58
2017-08-20T08:17:08.325Z,2.20
2017-08-20T08:19:42.740Z,2.08
2017-08-20T08:22:17.285Z,3.40
2017-08-20T08:24:51.778Z,2.67
2017-08-20T08:27:26.179Z,2.30
2017-08-20T08:30:00.716Z,1.48
2017-08-20T08:32:35.030Z,2.75
2017-08-20T08:35:09.317Z,3.12
2017-08-20T08:37:43.644Z,2.28
2017-08-20T08:40:18.088Z,2.83
2017-08-20T08:42:52.488Z,3.10
2017-08-20T08:45:26.764Z,2.33
2017-08-20T08:48:01.174Z,2.97
2017-08-20T08:50:35.623Z,3.40
2017-08-20T08:53:09.918Z,3.78
2017-08-20T08:55:44.258Z,3.20
2017-08-20T08:58:18.599Z,3.25
2017-08-20T09:00:53.832Z,3.30
2017-08-20T09:03:28.300Z,2.15
2017-08-20T09:06:02.604Z,2.72
2017-08-20T09:08:36.928Z,3.00
2017-08-20T09:11:12.026Z,1.73
2017-08-20T09:13:46.384Z,3.10
2017-08-20T09:16:20.785Z,2.50
2017-08-20T09:18:55.190Z,4.07
2017-08-20T09:21:29.621Z,4.43
2017-08-20T09:24:04.042Z,4.68
2017-08-20T09:26:38.382Z,4.43
2017-08-20T09:29:13.496Z,4.85
2017-08-20T09:31:47.980Z,4.43
2017-08-20T09:34:23.050Z,3.87
2017-08-20T09:36:57.425Z,3.80
2017-08-20T09:39:31.896Z,3.20
2017-08-20T09:42:06.184Z,2.50
2017-08-20T09:44:40.657Z,3.42
2017-08-20T09:47:15.016Z,3.30
2017-08-20T09:49:49.573Z,3.10
2017-08-20T09:52:23.981Z,3.10
2017-08-20T09:54:58.317Z,3.28
2017-08-20T09:57:32.610Z,2.40
2017-08-20T10:00:06.956Z,3.37
2017-08-20T10:02:41.451Z,2.42
2017-08-20T10:05:15.901Z,3.30
2017-08-20T10:07:50.322Z,1.98
2017-08-20T10:10:24.926Z,2.50
2017-08-20T10:12:59.245Z,2.83
2017-08-20T10:15:34.573Z,2.00
2017-08-20T10:18:09.008Z,2.50
2017-08-20T10:20:43.604Z,2.22
2017-08-20T10:23:18.822Z,1.90
2017-08-20T10:25:53.444Z,2.30
2017-08-20T10:28:27.884Z,2.28
2017-08-20T10:31:02.207Z,2.55
2017-08-20T10:33:36.497Z,2.17
2017-08-20T10:36:10.995Z,2.03
2017-08-20T10:38:45.287Z,2.30
2017-08-20T10:41:19.692Z,3.00
2017-08-20T10:43:54.097Z,1.92
2017-08-20T10:46:29.254Z,3.00
2017-08-20T10:49:03.575Z,2.50
2017-08-20T10:51:37.873Z,2.03
2017-08-20T10:54:12.474Z,2.70
2017-08-20T10:56:46.880Z,3.05
2017-08-20T10:59:21.352Z,2.97
2017-08-20T11:01:56.557Z,3.42
2017-08-20T11:04:30.954Z,3.00
2017-08-20T11:07:06.221Z,2.42
2017-08-20T11:09:41.545Z,1.70
2017-08-20T11:12:15.816Z,2.05
2017-08-20T11:14:50.290Z,2.20
2017-08-20T11:17:24.740Z,1.70
2017-08-20T11:19:59.117Z,1.20
2017-08-20T11:22:33.674Z,1.87
2017-08-20T11:25:08.220Z,1.70
2017-08-20T11:27:42.750Z,1.87
2017-08-20T11:30:17.330Z,1.67
2017-08-20T11:32:51.622Z,1.92
2017-08-20T11:35:26.006Z,2.10
2017-08-20T11:38:00.334Z,1.90
2017-08-20T11:40:34.859Z,1.87
2017-08-20T11:43:09.305Z,1.80
2017-08-20T11:45:43.760Z,1.80
2017-08-20T11:48:18.145Z,2.67
2017-08-20T11:50:52.478Z,2.45
2017-08-20T11:53:26.946Z,1.92
2017-08-20T11:56:01.330Z,2.15
2017-08-20T11:58:35.766Z,2.50
2017-08-20T12:01:11.053Z,2.45
2017-08-20T12:03:45.402Z,3.08
2017-08-20T12:06:19.875Z,2.80
2017-08-20T12:08:54.291Z,2.55
2017-08-20T12:11:29.095Z,3.25
2017-08-20T12:14:03.515Z,2.80
2017-08-20T12:16:38.109Z,3.60
2017-08-20T12:19:12.577Z,2.55
2017-08-20T12:21:47.656Z,3.37
2017-08-20T12:24:22.093Z,2.87
2017-08-20T12:26:56.725Z,3.12
2017-08-20T12:29:31.224Z,2.92
2017-08-20T12:32:05.632Z,3.45
2017-08-20T12:34:39.992Z,2.75
2017-08-20T12:37:14.558Z,2.70
2017-08-20T12:39:48.857Z,2.00
2017-08-20T12:42:23.228Z,2.62
2017-08-20T12:44:57.504Z,2.28
2017-08-20T12:47:31.841Z,2.90
2017-08-20T12:50:06.179Z,2.80
2017-08-20T12:52:40.667Z,2.05
2017-08-20T12:55:15.128Z,3.08
2017-08-20T12:57:49.540Z,1.37
2017-08-20T13:00:24.028Z,1.90
2017-08-20T13:02:58.428Z,1.98
2017-08-20T13:05:33.585Z,2.47
2017-08-20T13:08:08.191Z,1.85
2017-08-20T13:10:42.529Z,2.50
2017-08-20T13:13:16.912Z,2.10
2017-08-20T13:15:51.325Z,2.78
2017-08-20T13:18:25.630Z,2.60
2017-08-20T13:20:59.937Z,1.77
2017-08-20T13:23:34.385Z,3.10
2017-08-20T13:26:08.856Z,1.77
2017-08-20T13:28:43.176Z,2.33
2017-08-20T13:31:17.521Z,2.22
2017-08-20T13:33:52.035Z,2.35
2017-08-20T13:36:26.553Z,1.75
2017-08-20T13:39:01.673Z,1.50
2017-08-20T13:41:36.205Z,1.40
2017-08-20T13:44:11.420Z,1.40
2017-08-20T13:46:45.749Z,1.62
2017-08-20T13:49:20.205Z,2.08
2017-08-20T13:51:54.617Z,1.87
2017-08-20T13:54:29.261Z,1.60
2017-08-20T13:57:03.677Z,1.40
2017-08-20T13:59:38.009Z,1.80
2017-08-20T14:02:12.473Z,1.45
2017-08-20T14:04:46.896Z,1.00
2017-08-20T14:07:21.362Z,1.40
2017-08-20T14:09:55.777Z,1.30
2017-08-20T14:12:30.146Z,1.70
2017-08-20T14:15:04.698Z,1.00
2017-08-20T14:17:39.092Z,1.45
2017-08-20T14:20:13.757Z,1.10
2017-08-20T14:22:48.101Z,1.25
2017-08-20T14:25:22.478Z,1.40
2017-08-20T14:27:56.767Z,1.37
2017-08-20T14:30:31.304Z,1.62
2017-08-20T14:33:05.603Z,1.25
2017-08-20T14:35:40.150Z,1.70
2017-08-20T14:38:14.616Z,1.35
2017-08-20T14:40:49.100Z,1.55
2017-08-20T14:43:24.286Z,1.70
2017-08-20T14:45:58.652Z,1.70
2017-08-20T14:48:33.853Z,1.50
2017-08-20T14:51:08.307Z,1.90
2017-08-20T14:53:42.694Z,1.35
2017-08-20T14:56:17.848Z,1.60
2017-08-20T14:58:52.246Z,2.17
2017-08-20T15:01:26.852Z,1.58
2017-08-20T15:04:01.172Z,1.35
2017-08-20T15:06:35.507Z,1.50
2017-08-20T15:09:09.945Z,1.20
2017-08-20T15:11:44.545Z,2.33
2017-08-20T15:14:18.902Z,1.90
2017-08-20T15:16:53.226Z,1.60
2017-08-20T15:19:27.692Z,1.90
2017-08-20T15:22:02.033Z,2.70
2017-08-20T15:24:36.468Z,1.60
2017-08-20T15:27:10.921Z,1.80
2017-08-20T15:29:46.189Z,2.17
2017-08-20T15:32:20.866Z,2.05
2017-08-20T15:34:55.320Z,1.90
2017-08-20T15:37:29.644Z,2.10
2017-08-20T15:40:04.075Z,2.42
2017-08-20T15:42:38.385Z,1.65
2017-08-20T15:45:13.007Z,2.08
2017-08-20T15:47:47.570Z,2.10
2017-08-20T15:50:22.109Z,1.65
2017-08-20T15:52:56.446Z,2.00
2017-08-20T15:55:30.842Z,1.70
2017-08-20T15:58:05.212Z,1.52
2017-08-20T16:00:39.589Z,1.20
2017-08-20T16:03:14.073Z,1.70
2017-08-20T16:05:48.561Z,1.75
2017-08-20T16:08:23.804Z,1.65
2017-08-20T16:10:58.191Z,1.30
2017-08-20T16:13:33.385Z,2.65
2017-08-20T16:16:07.828Z,1.83
2017-08-20T16:18:42.293Z,1.45
2017-08-20T16:21:16.636Z,1.60
2017-08-20T16:23:51.230Z,1.40
2017-08-20T16:26:25.589Z,1.58
2017-08-20T16:29:00.830Z,2.08
2017-08-20T16:31:36.148Z,2.40
2017-08-20T16:34:10.588Z,1.77
2017-08-20T16:36:45.101Z,1.75
2017-08-20T16:39:19.632Z,2.22
2017-08-20T16:41:53.989Z,1.60
2017-08-20T16:44:28.430Z,1.83
2017-08-20T16:47:05.833Z,1.90
2017-08-20T16:49:40.261Z,1.90
2017-08-20T16:52:14.715Z,1.50
2017-08-20T16:54:48.997Z,1.95
2017-08-20T16:57:23.330Z,1.70
2017-08-20T16:59:57.599Z,1.95
2017-08-20T17:02:32.072Z,1.90
2017-08-20T17:05:06.542Z,1.70
2017-08-20T17:07:40.881Z,1.30
2017-08-20T17:10:15.417Z,1.50
2017-08-20T17:12:49.940Z,1.20
2017-08-20T17:15:24.406Z,1.40
2017-08-20T17:17:58.797Z,1.48
2017-08-20T17:20:33.123Z,1.30
2017-08-20T17:23:07.528Z,1.65
2017-08-20T17:25:41.984Z,1.45
2017-08-20T17:28:16.481Z,1.48
2017-08-20T17:30:50.888Z,1.90
2017-08-20T17:33:25.424Z,1.40
2017-08-20T17:35:59.861Z,1.20
2017-08-20T17:38:34.293Z,1.58
2017-08-20T17:41:08.635Z,1.85
2017-08-20T17:43:43.891Z,2.37
2017-08-20T17:46:18.241Z,2.10
2017-08-20T17:48:52.682Z,1.60
2017-08-20T17:51:27.140Z,2.33
2017-08-20T17:54:01.437Z,2.22
2017-08-20T17:56:36.502Z,1.62
2017-08-20T17:59:10.945Z,1.60
2017-08-20T18:01:45.280Z,1.50
2017-08-20T18:04:19.657Z,1.50
2017-08-20T18:06:54.014Z,2.15
2017-08-20T18:09:28.313Z,1.73
2017-08-20T18:12:02.629Z,1.50
2017-08-20T18:14:36.928Z,1.85
2017-08-20T18:17:11.349Z,1.40
2017-08-20T18:19:46.548Z,1.42
2017-08-20T18:22:21.241Z,1.92
2017-08-20T18:24:55.552Z,2.20
2017-08-20T18:27:29.890Z,1.62
2017-08-20T18:30:04.377Z,1.55
2017-08-20T18:32:38.692Z,1.40
2017-08-20T18:35:13.025Z,2.35
2017-08-20T18:37:47.438Z,1.90
2017-08-20T18:40:21.794Z,2.20
2017-08-20T18:42:56.150Z,2.10
2017-08-20T18:45:30.626Z,2.20
2017-08-20T18:48:05.132Z,2.10
2017-08-20T18:50:39.423Z,2.05
2017-08-20T18:53:14.043Z,2.05
2017-08-20T18:55:49.262Z,1.95
2017-08-20T18:58:23.722Z,2.10
2017-08-20T19:00:58.818Z,2.45
2017-08-20T19:03:34.201Z,2.28
2017-08-20T19:06:08.681Z,2.50
2017-08-20T19:08:43.011Z,2.17
2017-08-20T19:11:17.445Z,1.98
2017-08-20T19:13:51.833Z,1.95
2017-08-20T19:16:26.374Z,2.12
2017-08-20T19:19:00.901Z,2.83
2017-08-20T19:21:35.409Z,2.00
2017-08-20T19:24:09.730Z,2.50
2017-08-20T19:26:44.116Z,1.77
2017-08-20T19:29:18.429Z,2.58
2017-08-20T19:31:52.748Z,2.20
2017-08-20T19:34:27.097Z,3.15
2017-08-20T19:37:01.511Z,2.87
2017-08-20T19:39:35.819Z,2.37
2017-08-20T19:42:10.244Z,2.33
2017-08-20T19:44:44.639Z,2.28
2017-08-20T19:47:19.793Z,2.67
2017-08-20T19:49:54.257Z,1.85
2017-08-20T19:52:28.661Z,3.00
2017-08-20T19:55:02.989Z,2.22
2017-08-20T19:57:37.291Z,2.35
2017-08-20T20:00:11.608Z,2.55
2017-08-20T20:02:46.071Z,2.92
2017-08-20T20:05:20.445Z,2.20
2017-08-20T20:07:54.810Z,2.67
2017-08-20T20:10:29.277Z,2.00
2017-08-20T20:13:04.501Z,2.47
2017-08-20T20:15:38.984Z,2.67
2017-08-20T20:18:13.467Z,2.30
2017-08-20T20:20:47.850Z,3.25
2017-08-20T20:23:22.311Z,2.78
2017-08-20T20:25:56.728Z,2.08
2017-08-20T20:28:31.049Z,1.90
2017-08-20T20:31:05.468Z,2.45
2017-08-20T20:33:39.925Z,2.15
2017-08-20T20:36:14.348Z,2.25
2017-08-20T20:38:48.689Z,2.50
2017-08-20T20:41:23.913Z,1.90
2017-08-20T20:43:58.472Z,2.83
2017-08-20T20:46:32.892Z,2.50
2017-08-20T20:49:07.428Z,2.28
2017-08-20T20:51:41.924Z,2.60
2017-08-20T20:54:16.264Z,2.62
2017-08-20T20:56:50.676Z,2.22
2017-08-20T20:59:25.097Z,3.17
2017-08-20T21:01:59.589Z,2.62
2017-08-20T21:04:33.937Z,2.87
2017-08-20T21:07:08.541Z,2.87
2017-08-20T21:09:43.060Z,3.72
2017-08-20T21:12:17.708Z,3.37
2017-08-20T21:14:52.924Z,3.55
2017-08-20T21:17:27.235Z,3.50
2017-08-20T21:20:01.558Z,3.15
2017-08-20T21:22:35.877Z,3.50
2017-08-20T21:25:10.209Z,3.75
2017-08-20T21:27:44.549Z,3.75
2017-08-20T21:30:18.874Z,3.25
2017-08-20T21:32:53.198Z,3.50
2017-08-20T21:35:27.697Z,5.25
2017-08-20T21:38:02.160Z,4.45
2017-08-20T21:40:36.512Z,4.78
2017-08-20T21:43:10.941Z,4.80
2017-08-20T21:45:45.404Z,3.72
2017-08-20T21:48:19.732Z,3.70
2017-08-20T21:50:54.989Z,2.83
2017-08-20T21:53:29.442Z,3.55
2017-08-20T21:56:03.825Z,4.05
2017-08-20T21:58:38.324Z,3.97
2017-08-20T22:01:12.737Z,4.12
2017-08-20T22:03:47.229Z,4.62
2017-08-20T22:06:21.513Z,3.10
2017-08-20T22:08:55.832Z,3.42
2017-08-20T22:11:30.316Z,3.70
2017-08-20T22:14:04.797Z,4.28
2017-08-20T22:16:39.097Z,3.72
2017-08-20T22:19:13.436Z,4.20
2017-08-20T22:21:47.737Z,4.57
2017-08-20T22:24:22.952Z,3.60
2017-08-20T22:26:57.396Z,3.90
2017-08-20T22:29:31.929Z,4.75
2017-08-20T22:32:07.116Z,3.92
2017-08-20T22:34:41.577Z,3.25
2017-08-20T22:37:16.185Z,3.37
2017-08-20T22:39:50.693Z,4.22
2017-08-20T22:42:25.093Z,3.17
2017-08-20T22:44:59.728Z,3.25
2017-08-20T22:47:35.065Z,4.45
2017-08-20T22:50:09.657Z,3.80
2017-08-20T22:52:43.989Z,4.30
2017-08-20T22:55:18.581Z,4.82
2017-08-20T22:57:53.033Z,3.12
2017-08-20T23:00:27.637Z,3.15
2017-08-20T23:03:01.933Z,2.90
2017-08-20T23:05:36.280Z,2.67
2017-08-20T23:08:10.769Z,3.15
2017-08-20T23:10:45.300Z,3.60
2017-08-20T23:13:19.740Z,3.28
2017-08-20T23:15:54.105Z,3.30
2017-08-20T23:18:28.630Z,2.90
2017-08-20T23:21:02.969Z,3.15
2017-08-20T23:23:37.269Z,3.33
2017-08-20T23:26:11.600Z,3.97
2017-08-20T23:28:46.046Z,2.75
2017-08-20T23:31:20.577Z,3.33
2017-08-20T23:33:54.931Z,3.50
2017-08-20T23:36:30.324Z,3.33
2017-08-20T23:39:04.805Z,3.83
2017-08-20T23:41:39.120Z,3.53
2017-08-20T23:44:13.506Z,4.10
2017-08-20T23:46:48.007Z,5.20
2017-08-20T23:49:22.339Z,3.60
2017-08-20T23:51:56.924Z,3.45
2017-08-20T23:54:31.266Z,3.10
2017-08-20T23:57:05.781Z,3.15
2017-08-20T23:59:40.097Z,3.92
